Time;durP1;ratioP1;P1;durP2;ratioP2;P2;SDS_P1;SDS_P2;PMS_P1;PMS_P2;Temp;Humidity;BMP_temperature;BMP_pressure;BME280_temperature;BME280_humidity;BME280_pressure;Samples;Min_cycle;Max_cycle;Signal;HPM_P1;HPM_P2
2023/10/12 00:02:00;;;;;;;0.40;0.20;;;;;;;16.49;95.46;99996.06;4905433;29;20867;-49
2023/10/12 00:04:37;;;;;;;0.40;0.20;;;;;;;16.49;95.64;100001.44;4905587;29;20541;-49
2023/10/12 00:07:15;;;;;;;0.40;0.20;;;;;;;16.60;96.03;100004.38;4917592;29;20463;-50
2023/10/12 00:09:49;;;;;;;0.40;0.20;;;;;;;16.58;95.99;99998.19;4905269;29;20468;-49
2023/10/12 00:12:16;;;;;;;0.40;0.20;;;;;;;16.63;95.48;99998.81;4905731;29;20446;-50
2023/10/12 00:14:42;;;;;;;0.40;0.20;;;;;;;16.66;95.63;100001.31;4901094;29;21008;-49
2023/10/12 00:17:09;;;;;;;0.40;0.20;;;;;;;16.81;95.31;100007.63;4911683;29;20489;-52
2023/10/12 00:19:38;;;;;;;0.40;0.20;;;;;;;16.52;96.20;99999.44;4899059;29;20513;-49
2023/10/12 00:22:09;;;;;;;0.40;0.20;;;;;;;16.62;96.05;100002.47;4911420;29;20536;-49
2023/10/12 00:24:38;;;;;;;0.40;0.20;;;;;;;16.81;95.03;100008.50;4906239;29;20979;-49
2023/10/12 00:27:11;;;;;;;0.40;0.30;;;;;;;16.70;95.53;100005.56;4905209;29;21031;-49
2023/10/12 00:29:39;;;;;;;0.40;0.20;;;;;;;16.61;96.52;99997.19;4908666;29;20466;-49
2023/10/12 00:32:09;;;;;;;0.40;0.20;;;;;;;16.81;95.38;100000.44;4914075;29;20449;-49
2023/10/12 00:34:45;;;;;;;0.40;0.20;;;;;;;16.67;96.11;99994.13;4917478;29;20485;-49
2023/10/12 00:37:13;;;;;;;0.40;0.20;;;;;;;16.58;96.07;99992.84;4904580;29;20427;-49
2023/10/12 00:39:56;;;;;;;0.40;0.20;;;;;;;16.62;96.66;99993.53;4906018;29;20549;-49
2023/10/12 00:42:32;;;;;;;0.40;0.20;;;;;;;16.88;96.27;99998.28;4898639;29;21012;-49
2023/10/12 00:45:06;;;;;;;0.40;0.20;;;;;;;16.75;95.90;100000.81;4911171;29;20449;-50
2023/10/12 00:47:44;;;;;;;0.40;0.20;;;;;;;16.78;96.07;99987.22;4907784;29;20962;-49
2023/10/12 00:50:12;;;;;;;0.40;0.20;;;;;;;16.75;96.07;99986.53;4904789;29;20459;-49
2023/10/12 00:52:54;;;;;;;0.40;0.20;;;;;;;16.76;96.42;99990.94;4906119;29;20455;-49
2023/10/12 00:55:35;;;;;;;0.40;0.20;;;;;;;16.89;95.75;99986.59;4917407;29;20449;-49
2023/10/12 00:58:05;;;;;;;0.40;0.20;;;;;;;16.99;94.83;99979.69;4904436;29;20453;-49
2023/10/12 01:00:45;;;;;;;0.40;0.20;;;;;;;17.03;94.74;99980.38;4916196;29;20571;-49
2023/10/12 01:08:46;;;;;;;0.40;0.20;;;;;;;16.96;94.70;99981.69;4910596;29;20971;-49
2023/10/12 01:11:20;;;;;;;0.40;0.20;;;;;;;16.82;94.40;99994.13;4911274;29;20555;-50
2023/10/12 01:16:29;;;;;;;0.40;0.20;;;;;;;16.62;95.05;99989.03;4904374;29;20457;-49
2023/10/12 01:19:05;;;;;;;0.40;0.20;;;;;;;16.53;95.66;99985.06;4907009;29;20448;-49
2023/10/12 01:21:36;;;;;;;0.40;0.20;;;;;;;16.35;95.75;99983.44;4910279;29;21063;-49
2023/10/12 01:24:11;;;;;;;0.40;0.20;;;;;;;16.56;95.71;99982.19;4909903;29;20877;-49
2023/10/12 01:26:48;;;;;;;0.40;0.20;;;;;;;16.61;94.95;99979.25;4910039;29;20428;-49
2023/10/12 01:29:21;;;;;;;0.40;0.20;;;;;;;16.26;95.97;99986.66;4910221;29;21009;-49
2023/10/12 01:32:05;;;;;;;0.40;0.20;;;;;;;16.39;95.64;99987.66;4906673;29;20528;-49
2023/10/12 01:34:36;;;;;;;0.40;0.20;;;;;;;16.54;95.12;99989.47;4903909;29;20463;-50
2023/10/12 01:37:11;;;;;;;0.40;0.20;;;;;;;16.28;95.78;99979.38;4904857;29;20446;-49
2023/10/12 01:39:51;;;;;;;0.40;0.20;;;;;;;16.31;95.91;99981.91;4897637;29;20473;-50
2023/10/12 01:42:21;;;;;;;0.40;0.20;;;;;;;16.30;95.91;99978.31;4910237;29;20493;-49
2023/10/12 01:44:49;;;;;;;0.40;0.20;;;;;;;16.47;95.03;99980.06;4898015;29;20476;-50
2023/10/12 01:47:17;;;;;;;0.70;0.70;;;;;;;16.08;96.29;99977.81;4910335;29;20943;-50
2023/10/12 01:49:46;;;;;;;0.40;0.20;;;;;;;16.10;96.79;99983.97;4906525;29;20506;-49
2023/10/12 01:52:14;;;;;;;0.40;0.20;;;;;;;15.97;96.77;99977.56;4903014;29;21022;-50
2023/10/12 01:54:44;;;;;;;0.40;0.20;;;;;;;16.20;96.72;99979.81;4906709;29;20458;-50
2023/10/12 01:57:10;;;;;;;0.40;0.20;;;;;;;16.15;96.10;99981.00;4910578;29;20521;-50
2023/10/12 01:59:37;;;;;;;3.17;2.97;;;;;;;16.02;96.55;99978.16;4909647;29;20556;-49
2023/10/12 02:02:08;;;;;;;0.40;0.20;;;;;;;16.02;96.75;99972.78;4915924;29;20583;-50
2023/10/12 02:04:40;;;;;;;0.40;0.20;;;;;;;16.04;96.59;99973.59;4916154;29;20549;-50
2023/10/12 02:07:10;;;;;;;0.40;0.20;;;;;;;16.16;95.81;99988.97;4903789;29;20456;-50
2023/10/12 02:09:37;;;;;;;0.40;0.20;;;;;;;16.25;95.98;100001.88;4903704;29;20478;-50
2023/10/12 02:12:13;;;;;;;0.40;0.30;;;;;;;16.09;96.16;99994.78;4909310;29;20477;-50
2023/10/12 02:14:40;;;;;;;0.40;0.20;;;;;;;16.06;96.27;100005.69;4909844;29;20896;-50
2023/10/12 02:17:08;;;;;;;0.40;0.20;;;;;;;16.01;97.10;100008.59;4905539;29;20512;-49
2023/10/12 02:22:17;;;;;;;0.40;0.20;;;;;;;16.24;96.42;100010.88;4906792;29;20589;-50
2023/10/12 02:24:57;;;;;;;0.40;0.20;;;;;;;16.24;95.45;100007.31;4909907;29;20462;-49
2023/10/12 02:27:24;;;;;;;0.40;0.20;;;;;;;16.20;96.17;100025.41;4910247;29;20457;-50
2023/10/12 02:29:53;;;;;;;0.40;0.20;;;;;;;16.30;95.73;100029.28;4909271;29;20538;-49
2023/10/12 02:32:25;;;;;;;0.40;0.20;;;;;;;16.02;96.23;100031.78;4909672;29;20485;-50
2023/10/12 02:34:57;;;;;;;0.40;0.20;;;;;;;15.92;96.83;100039.47;4904916;29;20863;-49
2023/10/12 02:37:25;;;;;;;0.40;0.20;;;;;;;15.94;96.83;100042.94;4903092;29;20454;-50
2023/10/12 02:39:54;;;;;;;0.40;0.20;;;;;;;15.84;96.60;100030.13;4907381;29;20478;-50
2023/10/12 02:42:38;;;;;;;0.40;0.20;;;;;;;15.91;96.27;100036.88;4909550;29;20499;-50
2023/10/12 02:45:27;;;;;;;0.40;0.20;;;;;;;15.78;96.95;100047.41;4897851;29;20450;-49
2023/10/12 02:47:54;;;;;;;0.40;0.20;;;;;;;15.71;97.24;100043.31;4897037;29;20454;-49
2023/10/12 02:50:26;;;;;;;0.40;0.20;;;;;;;15.73;97.51;100049.44;4909346;29;20479;-49
2023/10/12 02:52:53;;;;;;;0.40;0.20;;;;;;;15.78;97.09;100041.19;4905642;29;20445;-50
2023/10/12 02:57:54;;;;;;;0.40;0.20;;;;;;;15.96;97.08;100035.69;4906431;29;20458;-49
2023/10/12 03:00:35;;;;;;;0.40;0.20;;;;;;;15.93;97.26;100032.31;4951950;23;20502;-50
2023/10/12 03:03:27;;;;;;;0.40;0.20;;;;;;;16.04;96.88;100046.00;4975503;28;20577;-50
2023/10/12 03:05:58;;;;;;;0.40;0.20;;;;;;;15.95;97.57;100051.84;4967330;28;20498;-50
2023/10/12 03:08:30;;;;;;;0.40;0.20;;;;;;;16.02;97.14;100042.50;4976737;28;20517;-49
2023/10/12 03:13:35;;;;;;;0.40;0.20;;;;;;;15.95;97.82;100044.66;4976619;28;20451;-51
2023/10/12 03:16:11;;;;;;;3.90;2.83;;;;;;;16.03;97.92;100043.38;4970488;28;20453;-50
2023/10/12 03:18:38;;;;;;;0.40;0.20;;;;;;;16.07;96.81;100050.31;4965113;28;20450;-49
2023/10/12 03:21:11;;;;;;;0.40;0.20;;;;;;;16.09;96.98;100046.59;4976359;28;20501;-50
2023/10/12 03:23:43;;;;;;;0.40;0.20;;;;;;;16.07;97.32;100045.81;4976539;28;20946;-49
2023/10/12 03:28:46;;;;;;;0.40;0.20;;;;;;;16.37;96.52;100045.91;4976609;28;20446;-50
2023/10/12 03:31:22;;;;;;;0.40;0.20;;;;;;;16.67;95.41;100053.19;4976254;28;20512;-50
2023/10/12 03:33:54;;;;;;;0.40;0.20;;;;;;;16.95;93.54;100058.69;4976274;28;20990;-50
2023/10/12 03:36:26;;;;;;;0.40;0.30;;;;;;;16.94;93.26;100069.53;4976316;28;20471;-50
2023/10/12 03:39:14;;;;;;;0.40;0.20;;;;;;;17.01;92.97;100065.56;4975991;28;20456;-49
2023/10/12 03:47:31;;;;;;;0.40;0.20;;;;;;;17.30;91.58;100075.44;4916339;29;20551;-50
2023/10/12 03:49:57;;;;;;;0.40;0.20;;;;;;;17.18;92.26;100068.97;4916340;29;20468;-50
2023/10/12 03:52:34;;;;;;;0.60;0.60;;;;;;;17.26;92.03;100070.31;4942468;28;20951;-49
2023/10/12 04:02:45;;;;;;;0.40;0.20;;;;;;;17.17;92.56;100052.94;4975691;28;21065;-50
2023/10/12 04:05:22;;;;;;;0.40;0.20;;;;;;;17.17;93.17;100063.69;4975657;28;20446;-49
2023/10/12 04:13:09;;;;;;;0.50;0.50;;;;;;;16.95;94.93;100074.81;4975418;28;20537;-50
2023/10/12 04:16:08;;;;;;;0.40;0.20;;;;;;;16.90;95.27;100076.06;4968745;28;20957;-49
2023/10/12 04:18:28;;;;;;;0.40;0.20;;;;;;;16.94;95.29;100082.97;4975247;28;20440;-50
2023/10/12 04:20:58;;;;;;;0.40;0.20;;;;;;;17.01;92.92;100074.47;4975383;28;20481;-50
2023/10/12 04:29:21;;;;;;;0.40;0.20;;;;;;;16.90;93.59;100086.78;4975198;28;20454;-50
2023/10/12 04:34:14;;;;;;;0.40;0.20;;;;;;;16.93;93.53;100084.78;4975175;28;20450;-50
2023/10/12 04:36:52;;;;;;;0.40;0.20;;;;;;;17.04;93.13;100081.47;4975155;28;20458;-50
2023/10/12 04:39:25;;;;;;;0.40;0.20;;;;;;;16.82;93.84;100068.44;4974894;28;20807;-50
2023/10/12 04:46:51;;;;;;;0.40;0.20;;;;;;;16.81;94.48;100082.81;4975039;28;20454;-49
2023/10/12 04:51:59;;;;;;;0.40;0.20;;;;;;;16.82;93.67;100081.84;4974766;28;20521;-49
2023/10/12 04:54:28;;;;;;;0.40;0.20;;;;;;;16.84;93.34;100082.63;4963957;28;20450;-49
2023/10/12 04:57:12;;;;;;;0.40;0.20;;;;;;;16.82;93.43;100079.16;4974405;28;20865;-49
2023/10/12 05:00:00;;;;;;;2.60;1.90;;;;;;;16.92;93.03;100080.38;4975040;28;20523;-50
2023/10/12 05:02:54;;;;;;;0.40;0.20;;;;;;;16.96;93.18;100078.38;4974660;28;20573;-50
2023/10/12 05:07:54;;;;;;;0.40;0.20;;;;;;;16.79;94.43;100087.41;4974615;28;20455;-49
2023/10/12 05:10:32;;;;;;;0.40;0.20;;;;;;;16.81;94.09;100094.41;4961289;28;20521;-49
2023/10/12 05:13:05;;;;;;;0.40;0.20;;;;;;;16.82;94.25;100080.03;4974388;28;20448;-50
2023/10/12 05:15:40;;;;;;;0.40;0.20;;;;;;;16.84;93.98;100088.00;4967767;28;20453;-50
2023/10/12 05:18:07;;;;;;;0.40;0.20;;;;;;;17.01;93.05;100084.34;4974244;28;20884;-51
2023/10/12 05:20:35;;;;;;;0.40;0.20;;;;;;;16.99;93.53;100099.66;4973988;28;20998;-50
2023/10/12 05:23:04;;;;;;;0.40;0.20;;;;;;;16.99;93.61;100127.38;4974128;28;20596;-50
2023/10/12 05:26:14;;;;;;;0.40;0.30;;;;;;;17.00;93.60;100113.03;4973060;28;20951;-50
2023/10/12 05:28:31;;;;;;;0.40;0.20;;;;;;;16.80;94.34;100098.03;4954513;28;20462;-49
2023/10/12 05:36:10;;;;;;;0.67;0.67;;;;;;;16.63;94.92;100060.53;4973905;28;20948;-50
2023/10/12 05:38:38;;;;;;;0.40;0.30;;;;;;;16.68;95.00;100057.63;4973704;28;20969;-50
2023/10/12 05:41:10;;;;;;;0.40;0.30;;;;;;;16.79;94.56;100060.56;4973582;28;20470;-50
2023/10/12 05:43:38;;;;;;;0.40;0.20;;;;;;;16.87;94.33;100061.84;4973627;28;20485;-49
2023/10/12 05:46:16;;;;;;;0.40;0.20;;;;;;;16.97;93.88;100085.47;4973930;28;20454;-50
2023/10/12 05:48:46;;;;;;;0.40;0.20;;;;;;;17.10;93.25;100106.13;4973762;28;20450;-50
2023/10/12 05:51:15;;;;;;;0.40;0.20;;;;;;;17.21;92.75;100104.66;4973696;28;20502;-50
2023/10/12 05:53:41;;;;;;;0.40;0.20;;;;;;;17.14;93.36;100114.91;4973798;28;20538;-50
2023/10/12 05:56:08;;;;;;;0.40;0.20;;;;;;;17.14;93.64;100133.72;4973400;28;20454;-49
2023/10/12 05:58:34;;;;;;;0.40;0.20;;;;;;;17.18;93.41;100151.38;4969317;28;20542;-50
2023/10/12 06:01:08;;;;;;;0.40;0.20;;;;;;;17.28;92.50;100163.31;4979908;28;20478;-50
2023/10/12 06:03:46;;;;;;;0.40;0.20;;;;;;;17.17;93.06;100160.38;4973480;28;20489;-50
2023/10/12 06:06:13;;;;;;;0.40;0.20;;;;;;;17.16;93.39;100175.66;4973524;28;20953;-51
2023/10/12 06:08:40;;;;;;;0.40;0.20;;;;;;;17.15;93.27;100175.72;4973249;28;20446;-50
2023/10/12 06:11:07;;;;;;;0.70;0.70;;;;;;;17.03;94.49;100179.13;4973640;28;20481;-50
2023/10/12 06:13:44;;;;;;;0.40;0.20;;;;;;;17.11;95.26;100193.81;4973521;28;20892;-48
2023/10/12 06:16:17;;;;;;;0.40;0.20;;;;;;;17.07;94.68;100196.78;4967665;28;20935;-48
2023/10/12 06:18:44;;;;;;;0.40;0.20;;;;;;;16.99;94.79;100194.53;4973541;28;20477;-49
2023/10/12 06:21:17;;;;;;;0.40;0.20;;;;;;;17.03;95.10;100190.72;4973288;28;20525;-49
2023/10/12 06:23:47;;;;;;;0.40;0.20;;;;;;;16.86;95.74;100191.69;4973632;28;20692;-49
2023/10/12 06:26:17;;;;;;;0.40;0.20;;;;;;;17.07;94.85;100204.84;4973466;28;20768;-49
2023/10/12 06:28:44;;;;;;;0.40;0.20;;;;;;;17.13;95.06;100207.16;4973270;28;21197;-49
2023/10/12 06:31:10;;;;;;;0.40;0.20;;;;;;;16.98;95.71;100187.41;4973327;28;20570;-49
2023/10/12 06:33:41;;;;;;;0.40;0.20;;;;;;;16.95;95.96;100203.72;4973220;28;20541;-49
2023/10/12 06:36:16;;;;;;;0.40;0.20;;;;;;;16.92;95.83;100198.50;4973621;28;20421;-48
2023/10/12 06:39:23;;;;;;;0.40;0.20;;;;;;;16.95;95.58;100200.16;4976959;28;20445;-49
2023/10/12 06:44:12;;;;;;;0.40;0.20;;;;;;;17.01;96.13;100210.56;4975991;28;20498;-51
2023/10/12 06:46:48;;;;;;;0.40;0.20;;;;;;;16.86;96.24;100193.50;4977295;28;20876;-50
2023/10/12 06:49:29;;;;;;;0.40;0.20;;;;;;;16.88;96.97;100197.84;4976917;28;20865;-50
2023/10/12 06:52:02;;;;;;;0.40;0.20;;;;;;;17.00;96.51;100207.03;4976905;28;20549;-52
2023/10/12 06:57:29;;;;;;;0.40;0.20;;;;;;;17.02;96.87;100197.06;4976999;28;20537;-49
2023/10/12 07:02:24;;;;;;;0.40;0.20;;;;;;;17.22;95.76;100221.91;4964803;28;20568;-49
2023/10/12 07:04:53;;;;;;;0.40;0.20;;;;;;;17.19;96.32;100222.94;4976587;28;20512;-49
2023/10/12 07:07:36;;;;;;;0.40;0.20;;;;;;;17.05;96.82;100202.25;4976864;28;20505;-49
2023/10/12 07:12:42;;;;;;;0.40;0.20;;;;;;;17.17;96.75;100208.75;4976801;28;20497;-49
2023/10/12 07:15:12;;;;;;;0.40;0.20;;;;;;;17.25;95.56;100227.97;4970078;28;20969;-49
2023/10/12 07:17:48;;;;;;;0.40;0.20;;;;;;;17.23;95.80;100207.50;4976841;28;20892;-48
2023/10/12 07:23:05;;;;;;;0.40;0.20;;;;;;;17.36;95.81;100224.66;4976590;28;20545;-49
2023/10/12 07:25:35;;;;;;;0.40;0.20;;;;;;;17.44;95.97;100219.72;4976520;28;20447;-49
2023/10/12 07:28:02;;;;;;;0.40;0.20;;;;;;;17.47;95.57;100198.03;4976125;28;20431;-50
2023/10/12 07:30:36;;;;;;;0.40;0.20;;;;;;;17.20;97.26;100192.44;4976499;28;20517;-50
2023/10/12 07:33:07;;;;;;;0.40;0.20;;;;;;;17.28;96.88;100192.88;4976296;28;20449;-49
2023/10/12 07:35:35;;;;;;;0.40;0.20;;;;;;;17.26;97.03;100180.47;4976353;28;20846;-49
2023/10/12 07:38:14;;;;;;;0.40;0.20;;;;;;;17.28;96.97;100178.59;4976517;28;20454;-50
2023/10/12 07:41:03;;;;;;;0.40;0.20;;;;;;;17.65;95.25;100199.63;4976154;28;20475;-49
2023/10/12 07:43:31;;;;;;;0.40;0.20;;;;;;;17.83;93.78;100203.09;4976009;28;20497;-49
2023/10/12 07:46:24;;;;;;;0.40;0.20;;;;;;;17.94;93.56;100208.69;4976001;28;20553;-49
2023/10/12 07:48:51;;;;;;;0.40;0.20;;;;;;;18.03;92.72;100224.28;4974855;28;20769;-49
2023/10/12 07:51:28;;;;;;;0.40;0.20;;;;;;;18.11;92.22;100242.66;4976103;28;20553;-49
2023/10/12 07:53:57;;;;;;;0.40;0.20;;;;;;;17.93;96.14;100246.44;4976036;28;20421;-49
2023/10/12 07:56:26;;;;;;;0.40;0.20;;;;;;;18.03;95.27;100248.47;4975932;28;20425;-49
2023/10/12 07:58:57;;;;;;;0.40;0.20;;;;;;;18.03;96.64;100234.16;4971722;28;21004;-49
2023/10/12 08:03:53;;;;;;;0.40;0.20;;;;;;;17.94;97.17;100234.72;4964354;28;20498;-49
2023/10/12 08:06:31;;;;;;;0.40;0.20;;;;;;;18.00;97.90;100243.28;4975577;28;20541;-51
2023/10/12 08:09:04;;;;;;;0.40;0.20;;;;;;;18.13;98.49;100256.00;4975511;28;20512;-51
2023/10/12 08:11:34;;;;;;;0.40;0.20;;;;;;;18.14;99.02;100245.16;4975444;28;20953;-51
2023/10/12 08:14:39;;;;;;;0.40;0.20;;;;;;;18.10;99.09;100251.69;4972821;28;20815;-51
2023/10/12 08:22:36;;;;;;;0.40;0.20;;;;;;;18.21;98.83;100257.25;4975245;28;20958;-49
2023/10/12 08:25:04;;;;;;;0.40;0.20;;;;;;;18.24;99.53;100259.78;4958242;28;20850;-50
2023/10/12 08:27:43;;;;;;;0.50;0.50;;;;;;;18.31;99.61;100253.06;4975397;28;20458;-49
2023/10/12 08:30:14;;;;;;;0.40;0.20;;;;;;;18.38;100.00;100264.34;4974873;28;20469;-49
2023/10/12 08:32:55;;;;;;;0.40;0.20;;;;;;;18.34;100.00;100252.88;4975193;28;20470;-49
2023/10/12 08:35:55;;;;;;;0.40;0.20;;;;;;;18.38;100.00;100267.03;4975164;28;20475;-49
2023/10/12 08:38:33;;;;;;;0.40;0.20;;;;;;;18.31;100.00;100257.56;4974998;28;20450;-49
2023/10/12 08:43:48;;;;;;;0.40;0.20;;;;;;;18.33;100.00;100251.13;4974922;28;20494;-49
2023/10/12 08:46:48;;;;;;;0.40;0.20;;;;;;;18.38;99.39;100266.16;4975000;28;20508;-49
2023/10/12 08:52:04;;;;;;;0.40;0.20;;;;;;;18.62;98.11;100259.22;4974947;28;20424;-49
2023/10/12 08:54:38;;;;;;;0.40;0.20;;;;;;;18.45;98.31;100264.81;4974806;28;20442;-50
2023/10/12 08:57:16;;;;;;;0.40;0.20;;;;;;;18.84;97.62;100280.34;4974653;28;20513;-49
2023/10/12 08:59:57;;;;;;;0.40;0.20;;;;;;;18.82;97.30;100288.53;4977097;28;20549;-49
2023/10/12 09:02:24;;;;;;;0.40;0.20;;;;;;;18.84;95.61;100296.50;4974608;28;20450;-50
2023/10/12 09:04:53;;;;;;;0.40;0.20;;;;;;;18.58;96.34;100293.56;4974429;28;20476;-49
2023/10/12 09:07:19;;;;;;;0.40;0.20;;;;;;;18.52;96.90;100295.78;4974536;28;20457;-49
2023/10/12 09:09:55;;;;;;;0.40;0.20;;;;;;;18.40;98.42;100299.22;4974137;28;20474;-49
2023/10/12 09:12:23;;;;;;;0.40;0.20;;;;;;;18.30;99.94;100289.00;4974708;28;20508;-49
2023/10/12 09:14:55;;;;;;;0.40;0.20;;;;;;;18.22;100.00;100290.41;4967763;28;20457;-50
2023/10/12 09:17:27;;;;;;;0.40;0.20;;;;;;;18.10;100.00;100272.34;4974338;28;20417;-49
2023/10/12 09:20:10;;;;;;;0.40;0.20;;;;;;;18.02;100.00;100268.28;4973382;28;20505;-49
2023/10/12 09:22:38;;;;;;;0.40;0.20;;;;;;;17.87;100.00;100271.00;4973981;28;20432;-50
2023/10/12 09:25:05;;;;;;;0.80;0.80;;;;;;;17.94;100.00;100273.22;4957072;28;20444;-49
2023/10/12 09:27:48;;;;;;;0.40;0.20;;;;;;;17.89;100.00;100266.41;4974120;28;20454;-49
2023/10/12 09:30:25;;;;;;;0.40;0.20;;;;;;;17.87;100.00;100271.88;4974229;28;20848;-49
2023/10/12 09:33:05;;;;;;;0.40;0.20;;;;;;;17.92;100.00;100285.91;4973851;28;20452;-49
2023/10/12 09:35:40;;;;;;;0.40;0.20;;;;;;;18.08;100.00;100276.91;4974274;28;20523;-51
2023/10/12 09:38:07;;;;;;;0.40;0.20;;;;;;;17.97;100.00;100282.97;4974519;28;20450;-49
2023/10/12 09:40:39;;;;;;;0.40;0.20;;;;;;;17.97;100.00;100273.06;4973663;28;20565;-49
2023/10/12 09:43:12;;;;;;;0.40;0.20;;;;;;;17.92;100.00;100263.53;4973660;28;20895;-49
2023/10/12 09:45:47;;;;;;;0.40;0.20;;;;;;;17.94;100.00;100261.59;4973709;28;20480;-49
2023/10/12 09:48:19;;;;;;;0.40;0.20;;;;;;;18.13;100.00;100269.47;4973890;28;20471;-49
2023/10/12 09:50:50;;;;;;;0.40;0.40;;;;;;;17.95;100.00;100274.09;4973620;28;20470;-49
2023/10/12 09:53:26;;;;;;;0.40;0.20;;;;;;;17.91;100.00;100273.41;4973754;28;20454;-49
2023/10/12 09:56:10;;;;;;;0.40;0.20;;;;;;;17.94;100.00;100261.59;4961712;28;20527;-49
2023/10/12 09:59:22;;;;;;;0.40;0.20;;;;;;;17.89;100.00;100271.78;4970073;28;20808;-49
2023/10/12 10:04:27;;;;;;;0.40;0.20;;;;;;;17.95;100.00;100269.59;4973496;28;20864;-48
2023/10/12 10:07:24;;;;;;;0.40;0.20;;;;;;;17.88;100.00;100262.84;4973700;28;20454;-49
2023/10/12 10:09:58;;;;;;;0.40;0.20;;;;;;;17.87;100.00;100262.94;4973373;28;20539;-49
2023/10/12 10:12:28;;;;;;;0.40;0.20;;;;;;;17.97;100.00;100273.06;4972812;28;20910;-49
2023/10/12 10:15:10;;;;;;;0.40;0.20;;;;;;;18.00;100.00;100270.19;4973420;28;20541;-50
2023/10/12 10:17:46;;;;;;;0.40;0.30;;;;;;;17.87;100.00;100266.50;4973351;28;20998;-50
2023/10/12 10:23:03;;;;;;;0.40;0.20;;;;;;;18.18;100.00;100270.03;4973248;28;20431;-51
2023/10/12 10:25:35;;;;;;;0.40;0.30;;;;;;;18.09;100.00;100270.59;4973424;28;20508;-50
2023/10/12 10:28:07;;;;;;;0.40;0.20;;;;;;;18.18;100.00;100280.81;4973390;28;20447;-49
2023/10/12 10:30:41;;;;;;;0.40;0.20;;;;;;;18.12;100.00;100268.59;4973386;28;20917;-49
2023/10/12 10:33:13;;;;;;;0.40;0.20;;;;;;;18.15;100.00;100276.47;4973003;28;20955;-48
2023/10/12 10:35:56;;;;;;;0.40;0.20;;;;;;;18.29;100.00;100276.50;4973205;28;20528;-49
2023/10/12 10:38:30;;;;;;;0.40;0.40;;;;;;;18.33;100.00;100274.50;4973165;28;20454;-50
2023/10/12 10:41:05;;;;;;;0.40;0.20;;;;;;;18.39;100.00;100284.91;4973187;28;21006;-50
2023/10/12 10:43:37;;;;;;;0.40;0.20;;;;;;;18.48;100.00;100292.38;4973101;28;20489;-51
2023/10/12 10:46:13;;;;;;;0.40;0.20;;;;;;;18.51;100.00;100286.84;4972891;28;20946;-50
2023/10/12 10:48:40;;;;;;;0.40;0.20;;;;;;;18.63;100.00;100286.09;4973168;28;20991;-51
2023/10/12 10:51:19;;;;;;;0.40;0.20;;;;;;;18.63;100.00;100283.41;4973196;28;20532;-50
2023/10/12 10:53:52;;;;;;;0.40;0.20;;;;;;;18.87;100.00;100274.75;4973053;28;20446;-50
2023/10/12 10:56:37;;;;;;;0.40;0.20;;;;;;;18.72;100.00;100275.72;4973238;28;20458;-50
2023/10/12 10:59:06;;;;;;;0.40;0.20;;;;;;;18.75;100.00;100272.84;4969000;28;20937;-51
2023/10/12 11:01:32;;;;;;;0.40;0.20;;;;;;;18.63;100.00;100261.84;4978432;28;20479;-50
2023/10/12 11:04:07;;;;;;;0.40;0.20;;;;;;;18.51;100.00;100238.38;4972985;28;20842;-48
2023/10/12 11:06:36;;;;;;;0.40;0.20;;;;;;;18.57;100.00;100229.91;4972372;28;20432;-50
2023/10/12 11:09:08;;;;;;;0.40;0.20;;;;;;;19.06;100.00;100224.16;4972810;28;20451;-51
2023/10/12 11:11:37;;;;;;;0.40;0.20;;;;;;;18.76;100.00;100218.88;4972742;28;20515;-49
2023/10/12 11:14:05;;;;;;;0.40;0.20;;;;;;;18.78;100.00;100237.66;4969011;28;20491;-52
2023/10/12 11:16:33;;;;;;;0.40;0.20;;;;;;;18.69;100.00;100233.69;4970833;28;20549;-49
2023/10/12 11:19:00;;;;;;;0.40;0.20;;;;;;;18.68;100.00;100239.19;4972872;28;20425;-49
2023/10/12 11:21:27;;;;;;;0.40;0.20;;;;;;;18.58;100.00;100228.94;4972397;28;20961;-48
2023/10/12 11:24:01;;;;;;;0.40;0.20;;;;;;;18.66;100.00;100224.97;4974975;28;20500;-49
2023/10/12 11:26:29;;;;;;;0.40;0.20;;;;;;;18.68;100.00;100229.28;4976252;28;20454;-49
2023/10/12 11:29:04;;;;;;;0.40;0.20;;;;;;;18.68;100.00;100229.28;4976200;28;20508;-51
2023/10/12 11:31:30;;;;;;;0.40;0.20;;;;;;;18.59;100.00;100211.84;4976033;28;20474;-49
2023/10/12 11:33:59;;;;;;;0.40;0.20;;;;;;;18.63;100.00;100197.25;4975875;28;20574;-51
2023/10/12 11:36:26;;;;;;;0.40;0.20;;;;;;;18.64;100.00;100208.91;4976030;28;20429;-49
2023/10/12 11:39:03;;;;;;;0.40;0.20;;;;;;;18.78;100.00;100213.41;4976060;28;20429;-49
2023/10/12 11:41:30;;;;;;;0.40;0.20;;;;;;;18.78;100.00;100216.97;4975951;28;20445;-49
2023/10/12 11:43:57;;;;;;;0.40;0.20;;;;;;;18.92;100.00;100222.34;4975901;28;20908;-52
2023/10/12 11:46:24;;;;;;;0.40;0.20;;;;;;;19.03;100.00;100205.47;4958716;28;20516;-50
2023/10/12 11:49:05;;;;;;;0.40;0.20;;;;;;;19.02;100.00;100214.50;4975991;28;20504;-51
2023/10/12 11:51:33;;;;;;;0.40;0.20;;;;;;;19.06;100.00;100218.75;4975821;28;20478;-51
2023/10/12 11:53:59;;;;;;;0.40;0.20;;;;;;;19.09;100.00;100215.00;4975862;28;20421;-51
2023/10/12 11:56:26;;;;;;;0.40;0.20;;;;;;;18.81;100.00;100219.47;4975660;28;20425;-51
2023/10/12 11:58:55;;;;;;;0.40;0.20;;;;;;;18.83;100.00;100216.66;4970310;28;20843;-51
2023/10/12 12:01:22;;;;;;;8.53;1.37;;;;;;;18.77;100.00;100214.34;4982618;28;20537;-53
2023/10/12 12:03:54;;;;;;;1.07;1.07;;;;;;;18.91;100.00;100208.94;4975448;28;20500;-52
2023/10/12 12:06:21;;;;;;;0.40;0.20;;;;;;;18.74;100.00;100198.38;4975564;28;20465;-49
2023/10/12 12:08:49;;;;;;;0.40;0.20;;;;;;;18.65;100.00;100194.47;4975380;28;20513;-51
2023/10/12 12:11:20;;;;;;;0.40;0.20;;;;;;;18.63;100.00;100193.66;4975060;28;20869;-51
2023/10/12 12:13:47;;;;;;;0.40;0.20;;;;;;;18.80;100.00;100204.28;4974240;28;20421;-51
2023/10/12 12:16:20;;;;;;;0.40;0.20;;;;;;;18.93;100.00;100207.03;4971088;28;20454;-51
2023/10/12 12:18:51;;;;;;;0.40;0.20;;;;;;;18.58;100.00;100185.00;4975106;28;20945;-51
2023/10/12 12:21:31;;;;;;;0.40;0.20;;;;;;;18.39;100.00;100185.31;4974943;28;21024;-51
2023/10/12 12:24:21;;;;;;;0.40;0.20;;;;;;;18.37;100.00;100179.16;4975288;28;20555;-52
2023/10/12 12:26:51;;;;;;;0.40;0.20;;;;;;;18.47;100.00;100182.13;4964705;28;20446;-51
2023/10/12 12:29:25;;;;;;;0.40;0.30;;;;;;;18.56;100.00;100176.16;4957962;28;20493;-50
2023/10/12 12:31:58;;;;;;;0.40;0.20;;;;;;;18.42;100.00;100173.47;4975124;28;20486;-51
2023/10/12 12:34:38;;;;;;;0.40;0.20;;;;;;;18.49;100.00;100159.53;4974701;28;20474;-51
2023/10/12 12:37:06;;;;;;;0.40;0.20;;;;;;;18.77;100.00;100160.47;4975208;28;20457;-50
2023/10/12 12:39:34;;;;;;;0.40;0.20;;;;;;;18.59;100.00;100173.28;4974824;28;20800;-51
2023/10/12 12:42:02;;;;;;;2.57;1.60;;;;;;;18.62;100.00;100167.69;4974854;28;20425;-50
2023/10/12 12:44:28;;;;;;;0.40;0.20;;;;;;;18.61;100.00;100160.56;4974524;28;20486;-51
2023/10/12 12:46:56;;;;;;;0.50;0.40;;;;;;;18.84;100.00;100159.13;4974772;28;20773;-51
2023/10/12 12:49:26;;;;;;;0.40;0.20;;;;;;;18.78;100.00;100156.84;4974861;28;20508;-51
2023/10/12 12:51:52;;;;;;;0.40;0.20;;;;;;;18.81;100.00;100153.97;4974481;28;20833;-50
2023/10/12 12:54:19;;;;;;;0.40;0.20;;;;;;;18.71;100.00;100150.13;4974990;28;20522;-51
2023/10/12 12:56:46;;;;;;;0.40;0.20;;;;;;;18.84;100.00;100146.53;4974532;28;20451;-51
2023/10/12 12:59:13;;;;;;;0.40;0.20;;;;;;;18.68;100.00;100150.31;4972976;28;20998;-51
2023/10/12 13:01:41;;;;;;;0.40;0.20;;;;;;;18.88;100.00;100157.97;4979169;28;20458;-51
2023/10/12 13:04:09;;;;;;;0.40;0.20;;;;;;;18.83;100.00;100157.41;4974351;28;20981;-51
2023/10/12 13:06:36;;;;;;;0.50;0.47;;;;;;;18.88;100.00;100148.06;4974548;28;20826;-51
2023/10/12 13:09:02;;;;;;;0.40;0.20;;;;;;;18.89;100.00;100159.69;4974511;28;20519;-51
2023/10/12 13:11:29;;;;;;;0.40;0.20;;;;;;;19.10;100.00;100158.31;4974123;28;20449;-51
2023/10/12 13:13:55;;;;;;;0.40;0.20;;;;;;;18.98;100.00;100164.50;4971761;28;20952;-51
2023/10/12 13:16:21;;;;;;;0.40;0.20;;;;;;;18.91;100.00;100168.53;4970333;28;20451;-50
2023/10/12 13:18:48;;;;;;;0.40;0.20;;;;;;;19.08;100.00;100165.63;4974326;28;20485;-52
2023/10/12 13:21:16;;;;;;;0.93;0.93;;;;;;;18.90;100.00;100166.81;4974101;28;20869;-53
2023/10/12 13:23:44;;;;;;;0.40;0.20;;;;;;;18.82;100.00;100164.63;4973994;28;20451;-53